sensor_id;sensor_type;location;lat;lon;timestamp;pressure;altitude;pressure_sealevel;temperature;humidity
72925;BME280;61070;50.794;7.054;2023-02-01T00:01:11;101316.78;;;5.79;100.00
72925;BME280;61070;50.794;7.054;2023-02-01T00:03:37;101330.81;;;5.80;100.00
72925;BME280;61070;50.794;7.054;2023-02-01T00:06:02;101323.19;;;5.92;100.00
72925;BME280;61070;50.794;7.054;2023-02-01T00:08:28;101321.19;;;5.80;100.00
72925;BME280;61070;50.794;7.054;2023-02-01T00:11:08;101325.47;;;5.77;100.00
72925;BME280;61070;50.794;7.054;2023-02-01T00:13:35;101315.69;;;5.67;100.00
72925;BME280;61070;50.794;7.054;2023-02-01T00:16:11;101322.50;;;5.55;100.00
72925;BME280;61070;50.794;7.054;2023-02-01T00:18:37;101309.22;;;5.48;100.00
72925;BME280;61070;50.794;7.054;2023-02-01T00:21:03;101323.28;;;5.51;100.00
72925;BME280;61070;50.794;7.054;2023-02-01T00:23:28;101315.53;;;5.59;100.00
72925;BME280;61070;50.794;7.054;2023-02-01T00:25:53;101318.38;;;5.70;100.00
72925;BME280;61070;50.794;7.054;2023-02-01T00:28:18;101316.59;;;5.67;100.00
72925;BME280;61070;50.794;7.054;2023-02-01T00:30:44;101310.44;;;5.67;100.00
72925;BME280;61070;50.794;7.054;2023-02-01T00:33:09;101326.13;;;5.64;100.00
72925;BME280;61070;50.794;7.054;2023-02-01T00:35:35;101332.16;;;5.57;100.00
72925;BME280;61070;50.794;7.054;2023-02-01T00:38:01;101323.44;;;5.59;100.00
72925;BME280;61070;50.794;7.054;2023-02-01T00:40:27;101328.88;;;5.70;100.00
72925;BME280;61070;50.794;7.054;2023-02-01T00:42:52;101316.44;;;5.61;100.00
72925;BME280;61070;50.794;7.054;2023-02-01T00:45:18;101323.38;;;5.56;100.00
72925;BME280;61070;50.794;7.054;2023-02-01T00:47:43;101321.72;;;5.61;100.00
72925;BME280;61070;50.794;7.054;2023-02-01T00:50:09;101318.31;;;5.67;100.00
72925;BME280;61070;50.794;7.054;2023-02-01T00:52:35;101324.41;;;5.66;100.00
72925;BME280;61070;50.794;7.054;2023-02-01T00:55:00;101320.16;;;5.72;100.00
72925;BME280;61070;50.794;7.054;2023-02-01T00:57:25;101322.72;;;5.68;100.00
72925;BME280;61070;50.794;7.054;2023-02-01T00:59:50;101324.53;;;5.72;100.00
72925;BME280;61070;50.794;7.054;2023-02-01T01:02:16;101328.28;;;5.86;100.00
72925;BME280;61070;50.794;7.054;2023-02-01T01:04:41;101325.63;;;5.84;100.00
72925;BME280;61070;50.794;7.054;2023-02-01T01:07:06;101325.47;;;5.77;100.00
72925;BME280;61070;50.794;7.054;2023-02-01T01:09:31;101308.81;;;5.76;100.00
72925;BME280;61070;50.794;7.054;2023-02-01T01:11:57;101310.47;;;5.70;100.00
72925;BME280;61070;50.794;7.054;2023-02-01T01:14:27;101299.84;;;5.64;100.00
72925;BME280;61070;50.794;7.054;2023-02-01T01:16:52;101286.09;;;5.78;98.98
72925;BME280;61070;50.794;7.054;2023-02-01T01:19:18;101278.16;;;5.77;97.94
72925;BME280;61070;50.794;7.054;2023-02-01T01:21:43;101275.66;;;5.83;96.58
72925;BME280;61070;50.794;7.054;2023-02-01T01:24:08;101279.09;;;5.79;97.49
72925;BME280;61070;50.794;7.054;2023-02-01T01:26:33;101267.78;;;5.83;96.02
72925;BME280;61070;50.794;7.054;2023-02-01T01:28:59;101269.34;;;5.72;96.86
72925;BME280;61070;50.794;7.054;2023-02-01T01:31:24;101277.06;;;5.63;97.10
72925;BME280;61070;50.794;7.054;2023-02-01T01:33:51;101273.56;;;5.64;97.08
72925;BME280;61070;50.794;7.054;2023-02-01T01:36:17;101276.28;;;5.67;97.01
72925;BME280;61070;50.794;7.054;2023-02-01T01:38:43;101288.63;;;5.72;96.14
72925;BME280;61070;50.794;7.054;2023-02-01T01:41:13;101284.06;;;5.64;96.19
72925;BME280;61070;50.794;7.054;2023-02-01T01:43:59;101291.28;;;5.74;95.40
72925;BME280;61070;50.794;7.054;2023-02-01T01:49:13;101307.69;;;5.61;97.05
72925;BME280;61070;50.794;7.054;2023-02-01T01:51:53;101305.09;;;5.64;96.02
72925;BME280;61070;50.794;7.054;2023-02-01T01:54:23;101305.13;;;5.65;96.02
72925;BME280;61070;50.794;7.054;2023-02-01T01:56:55;101305.94;;;5.61;95.97
72925;BME280;61070;50.794;7.054;2023-02-01T01:59:23;101298.97;;;5.63;95.51
72925;BME280;61070;50.794;7.054;2023-02-01T02:01:49;101292.88;;;5.66;94.77
72925;BME280;61070;50.794;7.054;2023-02-01T02:04:15;101295.38;;;5.58;95.68
72925;BME280;61070;50.794;7.054;2023-02-01T02:06:45;101283.81;;;5.48;96.83
72925;BME280;61070;50.794;7.054;2023-02-01T02:09:13;101276.81;;;5.49;96.00
72925;BME280;61070;50.794;7.054;2023-02-01T02:11:39;101279.28;;;5.41;96.63
72925;BME280;61070;50.794;7.054;2023-02-01T02:14:06;101274.16;;;5.47;96.30
72925;BME280;61070;50.794;7.054;2023-02-01T02:19:53;101272.59;;;5.57;96.18
72925;BME280;61070;50.794;7.054;2023-02-01T02:28:29;101268.09;;;5.51;96.12
72925;BME280;61070;50.794;7.054;2023-02-01T02:34:17;101267.16;;;5.46;97.15
72925;BME280;61070;50.794;7.054;2023-02-01T02:37:12;101259.13;;;5.40;97.61
72925;BME280;61070;50.794;7.054;2023-02-01T02:42:14;101262.09;;;5.57;97.01
72925;BME280;61070;50.794;7.054;2023-02-01T02:45:17;101257.50;;;5.45;97.39
72925;BME280;61070;50.794;7.054;2023-02-01T02:48:22;101265.72;;;5.65;96.47
72925;BME280;61070;50.794;7.054;2023-02-01T02:54:00;101256.81;;;5.57;97.06
72925;BME280;61070;50.794;7.054;2023-02-01T02:56:46;101258.56;;;5.55;96.79
72925;BME280;61070;50.794;7.054;2023-02-01T02:59:32;101254.38;;;5.68;96.20
72925;BME280;61070;50.794;7.054;2023-02-01T03:02:18;101258.69;;;5.64;96.56
72925;BME280;61070;50.794;7.054;2023-02-01T03:05:04;101249.06;;;5.65;96.78
72925;BME280;61070;50.794;7.054;2023-02-01T03:10:41;101236.00;;;5.69;95.99
72925;BME280;61070;50.794;7.054;2023-02-01T03:13:12;101234.25;;;5.70;95.68
72925;BME280;61070;50.794;7.054;2023-02-01T03:15:40;101227.25;;;5.69;96.15
72925;BME280;61070;50.794;7.054;2023-02-01T03:18:16;101221.97;;;5.69;95.67
72925;BME280;61070;50.794;7.054;2023-02-01T03:20:46;101224.69;;;5.73;95.45
72925;BME280;61070;50.794;7.054;2023-02-01T03:23:16;101219.34;;;5.69;95.35
72925;BME280;61070;50.794;7.054;2023-02-01T03:25:43;101220.25;;;5.69;95.39
72925;BME280;61070;50.794;7.054;2023-02-01T03:28:09;101226.41;;;5.73;95.44
72925;BME280;61070;50.794;7.054;2023-02-01T03:30:40;101230.72;;;5.68;95.82
72925;BME280;61070;50.794;7.054;2023-02-01T03:33:11;101237.69;;;5.66;95.55
72925;BME280;61070;50.794;7.054;2023-02-01T03:41:40;101244.13;;;5.83;94.17
72925;BME280;61070;50.794;7.054;2023-02-01T03:44:10;101245.88;;;5.84;93.96
72925;BME280;61070;50.794;7.054;2023-02-01T03:46:51;101244.13;;;5.84;93.79
72925;BME280;61070;50.794;7.054;2023-02-01T03:49:22;101229.34;;;5.90;93.44
72925;BME280;61070;50.794;7.054;2023-02-01T03:51:50;101236.34;;;5.89;93.33
72925;BME280;61070;50.794;7.054;2023-02-01T03:54:17;101237.16;;;5.88;93.32
72925;BME280;61070;50.794;7.054;2023-02-01T03:56:45;101236.16;;;5.78;93.93
72925;BME280;61070;50.794;7.054;2023-02-01T03:59:12;101237.16;;;5.88;93.07
72925;BME280;61070;50.794;7.054;2023-02-01T04:01:38;101226.63;;;5.85;92.99
72925;BME280;61070;50.794;7.054;2023-02-01T04:04:03;101222.09;;;5.76;93.05
72925;BME280;61070;50.794;7.054;2023-02-01T04:06:29;101228.31;;;5.80;92.97
72925;BME280;61070;50.794;7.054;2023-02-01T04:08:54;101237.91;;;5.78;92.96
72925;BME280;61070;50.794;7.054;2023-02-01T04:11:19;101225.72;;;5.83;92.34
72925;BME280;61070;50.794;7.054;2023-02-01T04:13:45;101221.16;;;5.71;92.97
72925;BME280;61070;50.794;7.054;2023-02-01T04:16:10;101226.47;;;5.77;92.76
72925;BME280;61070;50.794;7.054;2023-02-01T04:18:35;101222.72;;;5.62;92.98
72925;BME280;61070;50.794;7.054;2023-02-01T04:21:01;101233.38;;;5.69;92.59
72925;BME280;61070;50.794;7.054;2023-02-01T04:23:27;101228.16;;;5.71;92.33
72925;BME280;61070;50.794;7.054;2023-02-01T04:25:53;101223.09;;;5.83;91.63
72925;BME280;61070;50.794;7.054;2023-02-01T04:28:19;101230.97;;;5.83;91.65
72925;BME280;61070;50.794;7.054;2023-02-01T04:30:45;101234.47;;;5.83;91.94
72925;BME280;61070;50.794;7.054;2023-02-01T04:33:11;101226.47;;;5.76;92.82
72925;BME280;61070;50.794;7.054;2023-02-01T04:35:39;101233.25;;;5.63;93.08
72925;BME280;61070;50.794;7.054;2023-02-01T04:38:04;101221.16;;;5.71;92.70
72925;BME280;61070;50.794;7.054;2023-02-01T04:40:29;101216.91;;;5.81;91.81
72925;BME280;61070;50.794;7.054;2023-02-01T04:42:55;101209.81;;;5.75;91.61
72925;BME280;61070;50.794;7.054;2023-02-01T04:45:20;101220.31;;;5.74;92.03
72925;BME280;61070;50.794;7.054;2023-02-01T04:47:45;101216.81;;;5.75;92.82
72925;BME280;61070;50.794;7.054;2023-02-01T04:50:10;101223.78;;;5.71;92.55
72925;BME280;61070;50.794;7.054;2023-02-01T04:52:36;101220.44;;;5.81;92.13
72925;BME280;61070;50.794;7.054;2023-02-01T04:55:03;101222.91;;;5.72;92.73
72925;BME280;61070;50.794;7.054;2023-02-01T04:57:28;101224.59;;;5.67;92.71
72925;BME280;61070;50.794;7.054;2023-02-01T04:59:53;101228.03;;;5.65;92.13
72925;BME280;61070;50.794;7.054;2023-02-01T05:02:19;101213.81;;;5.53;92.87
72925;BME280;61070;50.794;7.054;2023-02-01T05:04:44;101207.66;;;5.51;92.25
72925;BME280;61070;50.794;7.054;2023-02-01T05:07:09;101189.31;;;5.54;92.02
72925;BME280;61070;50.794;7.054;2023-02-01T05:09:35;101188.25;;;5.43;92.04
72925;BME280;61070;50.794;7.054;2023-02-01T05:12:00;101187.44;;;5.44;92.20
72925;BME280;61070;50.794;7.054;2023-02-01T05:14:44;101180.34;;;5.40;92.19
72925;BME280;61070;50.794;7.054;2023-02-01T05:17:09;101183.78;;;5.36;91.82
72925;BME280;61070;50.794;7.054;2023-02-01T05:19:34;101180.22;;;5.33;92.29
72925;BME280;61070;50.794;7.054;2023-02-01T05:22:00;101191.50;;;5.29;92.08
72925;BME280;61070;50.794;7.054;2023-02-01T05:24:25;101187.16;;;5.29;92.21
72925;BME280;61070;50.794;7.054;2023-02-01T05:26:52;101194.94;;;5.23;92.00
72925;BME280;61070;50.794;7.054;2023-02-01T05:29:18;101209.72;;;5.19;92.38
72925;BME280;61070;50.794;7.054;2023-02-01T05:31:47;101204.44;;;5.16;92.19
72925;BME280;61070;50.794;7.054;2023-02-01T05:34:12;101196.47;;;5.12;92.15
72925;BME280;61070;50.794;7.054;2023-02-01T05:36:38;101216.63;;;5.13;92.26
72925;BME280;61070;50.794;7.054;2023-02-01T05:39:03;101210.25;;;4.99;92.72
72925;BME280;61070;50.794;7.054;2023-02-01T05:41:29;101212.00;;;5.00;92.63
72925;BME280;61070;50.794;7.054;2023-02-01T05:43:54;101205.75;;;4.93;93.22
72925;BME280;61070;50.794;7.054;2023-02-01T05:46:20;101208.56;;;5.04;91.91
72925;BME280;61070;50.794;7.054;2023-02-01T05:48:45;101206.03;;;5.08;91.54
72925;BME280;61070;50.794;7.054;2023-02-01T05:51:11;101208.34;;;4.91;92.49
72925;BME280;61070;50.794;7.054;2023-02-01T05:53:36;101209.97;;;4.86;92.55
72925;BME280;61070;50.794;7.054;2023-02-01T05:56:02;101211.84;;;4.90;92.63
72925;BME280;61070;50.794;7.054;2023-02-01T05:58:28;101200.69;;;5.02;91.53
72925;BME280;61070;50.794;7.054;2023-02-01T06:00:54;101188.38;;;5.00;91.21
72925;BME280;61070;50.794;7.054;2023-02-01T06:03:19;101191.75;;;4.94;91.24
72925;BME280;61070;50.794;7.054;2023-02-01T06:05:46;101190.03;;;4.96;91.31
72925;BME280;61070;50.794;7.054;2023-02-01T06:08:11;101198.38;;;4.75;92.54
72925;BME280;61070;50.794;7.054;2023-02-01T06:10:37;101203.81;;;4.84;91.87
72925;BME280;61070;50.794;7.054;2023-02-01T06:13:02;101218.03;;;4.95;91.71
72925;BME280;61070;50.794;7.054;2023-02-01T06:15:28;101204.69;;;4.83;91.78
72925;BME280;61070;50.794;7.054;2023-02-01T06:17:53;101210.72;;;4.78;92.18
72925;BME280;61070;50.794;7.054;2023-02-01T06:20:19;101194.31;;;4.89;91.38
72925;BME280;61070;50.794;7.054;2023-02-01T06:22:45;101193.28;;;4.81;91.85
72925;BME280;61070;50.794;7.054;2023-02-01T06:25:10;101184.53;;;4.82;91.52
72925;BME280;61070;50.794;7.054;2023-02-01T06:27:36;101193.44;;;4.90;91.23
72925;BME280;61070;50.794;7.054;2023-02-01T06:30:03;101190.59;;;4.78;91.93
72925;BME280;61070;50.794;7.054;2023-02-01T06:32:28;101188.94;;;4.83;91.74
72925;BME280;61070;50.794;7.054;2023-02-01T06:34:53;101207.31;;;4.83;91.53
72925;BME280;61070;50.794;7.054;2023-02-01T06:37:22;101194.13;;;4.80;91.79
72925;BME280;61070;50.794;7.054;2023-02-01T06:39:49;101214.22;;;4.78;91.72
72925;BME280;61070;50.794;7.054;2023-02-01T06:42:15;101210.72;;;4.79;92.07
72925;BME280;61070;50.794;7.054;2023-02-01T06:44:40;101205.31;;;4.70;92.84
72925;BME280;61070;50.794;7.054;2023-02-01T06:47:05;101196.75;;;4.80;92.27
72925;BME280;61070;50.794;7.054;2023-02-01T06:49:31;101214.97;;;4.73;92.65
72925;BME280;61070;50.794;7.054;2023-02-01T06:51:56;101229.16;;;4.82;92.74
72925;BME280;61070;50.794;7.054;2023-02-01T06:54:21;101235.25;;;4.81;92.28
72925;BME280;61070;50.794;7.054;2023-02-01T06:56:47;101226.72;;;4.91;91.56
72925;BME280;61070;50.794;7.054;2023-02-01T06:59:12;101230.09;;;4.86;91.77
72925;BME280;61070;50.794;7.054;2023-02-01T07:01:38;101240.00;;;4.99;91.86
72925;BME280;61070;50.794;7.054;2023-02-01T07:04:03;101222.41;;;4.95;91.58
72925;BME280;61070;50.794;7.054;2023-02-01T07:06:29;101235.66;;;5.01;91.29
72925;BME280;61070;50.794;7.054;2023-02-01T07:08:54;101237.16;;;4.88;91.91
72925;BME280;61070;50.794;7.054;2023-02-01T07:11:21;101237.38;;;4.99;91.60
72925;BME280;61070;50.794;7.054;2023-02-01T07:13:47;101236.50;;;4.99;91.40
72925;BME280;61070;50.794;7.054;2023-02-01T07:16:15;101238.38;;;5.06;90.61
72925;BME280;61070;50.794;7.054;2023-02-01T07:18:41;101248.66;;;4.95;91.45
72925;BME280;61070;50.794;7.054;2023-02-01T07:21:06;101241.59;;;4.91;91.59
72925;BME280;61070;50.794;7.054;2023-02-01T07:23:32;101242.28;;;4.82;92.05
72925;BME280;61070;50.794;7.054;2023-02-01T07:25:59;101245.06;;;4.90;92.15
72925;BME280;61070;50.794;7.054;2023-02-01T07:28:26;101250.50;;;4.99;91.56
72925;BME280;61070;50.794;7.054;2023-02-01T07:30:53;101252.91;;;4.88;91.71
72925;BME280;61070;50.794;7.054;2023-02-01T07:33:20;101262.28;;;4.76;92.87
72925;BME280;61070;50.794;7.054;2023-02-01T07:35:46;101260.69;;;4.85;91.97
72925;BME280;61070;50.794;7.054;2023-02-01T07:38:12;101280.03;;;4.87;92.03
72925;BME280;61070;50.794;7.054;2023-02-01T07:40:37;101267.06;;;4.96;91.36
72925;BME280;61070;50.794;7.054;2023-02-01T07:43:02;101275.09;;;5.04;91.11
72925;BME280;61070;50.794;7.054;2023-02-01T07:45:27;101276.81;;;5.02;91.34
72925;BME280;61070;50.794;7.054;2023-02-01T07:47:53;101282.91;;;5.00;91.38
72925;BME280;61070;50.794;7.054;2023-02-01T07:50:18;101269.78;;;5.01;91.61
72925;BME280;61070;50.794;7.054;2023-02-01T07:52:44;101275.13;;;5.06;91.52
72925;BME280;61070;50.794;7.054;2023-02-01T07:55:09;101262.84;;;5.05;91.28
72925;BME280;61070;50.794;7.054;2023-02-01T07:57:34;101264.56;;;5.03;91.45
72925;BME280;61070;50.794;7.054;2023-02-01T08:00:00;101269.00;;;5.07;91.80
72925;BME280;61070;50.794;7.054;2023-02-01T08:02:43;101272.63;;;5.12;91.10
72925;BME280;61070;50.794;7.054;2023-02-01T08:05:09;101278.78;;;5.14;91.16
72925;BME280;61070;50.794;7.054;2023-02-01T08:07:34;101266.53;;;5.14;91.29
72925;BME280;61070;50.794;7.054;2023-02-01T08:09:59;101273.63;;;5.18;90.90
72925;BME280;61070;50.794;7.054;2023-02-01T08:12:25;101284.22;;;5.23;91.02
72925;BME280;61070;50.794;7.054;2023-02-01T08:14:53;101287.72;;;5.22;90.69
72925;BME280;61070;50.794;7.054;2023-02-01T08:17:19;101283.44;;;5.29;90.14
72925;BME280;61070;50.794;7.054;2023-02-01T08:19:44;101287.06;;;5.34;90.52
72925;BME280;61070;50.794;7.054;2023-02-01T08:22:10;101278.31;;;5.35;90.51
72925;BME280;61070;50.794;7.054;2023-02-01T08:24:35;101284.50;;;5.38;90.23
72925;BME280;61070;50.794;7.054;2023-02-01T08:27:01;101277.34;;;5.31;90.58
72925;BME280;61070;50.794;7.054;2023-02-01T08:29:27;101273.03;;;5.33;89.87
72925;BME280;61070;50.794;7.054;2023-02-01T08:31:52;101282.81;;;5.42;89.96
72925;BME280;61070;50.794;7.054;2023-02-01T08:34:19;101275.75;;;5.39;89.85
72925;BME280;61070;50.794;7.054;2023-02-01T08:36:44;101289.03;;;5.45;89.81
72925;BME280;61070;50.794;7.054;2023-02-01T08:39:10;101281.16;;;5.45;89.91
72925;BME280;61070;50.794;7.054;2023-02-01T08:41:36;101277.69;;;5.48;89.81
72925;BME280;61070;50.794;7.054;2023-02-01T08:44:01;101292.72;;;5.57;89.54
72925;BME280;61070;50.794;7.054;2023-02-01T08:46:26;101307.00;;;5.71;88.92
72925;BME280;61070;50.794;7.054;2023-02-01T08:48:52;101298.28;;;5.73;88.74
72925;BME280;61070;50.794;7.054;2023-02-01T08:51:19;101299.00;;;5.66;88.97
72925;BME280;61070;50.794;7.054;2023-02-01T08:53:45;101305.28;;;5.74;88.46
72925;BME280;61070;50.794;7.054;2023-02-01T08:56:12;101321.22;;;5.83;88.71
72925;BME280;61070;50.794;7.054;2023-02-01T08:58:37;101299.34;;;5.84;87.28
72925;BME280;61070;50.794;7.054;2023-02-01T09:01:05;101317.84;;;5.89;87.54
72925;BME280;61070;50.794;7.054;2023-02-01T09:03:31;101312.53;;;5.88;87.90
72925;BME280;61070;50.794;7.054;2023-02-01T09:06:03;101322.13;;;5.85;87.94
72925;BME280;61070;50.794;7.054;2023-02-01T09:08:29;101318.16;;;6.07;87.33
72925;BME280;61070;50.794;7.054;2023-02-01T09:10:58;101316.44;;;6.09;87.95
72925;BME280;61070;50.794;7.054;2023-02-01T09:13:24;101322.66;;;6.15;86.60
72925;BME280;61070;50.794;7.054;2023-02-01T09:15:50;101313.03;;;6.15;86.57
72925;BME280;61070;50.794;7.054;2023-02-01T09:18:16;101308.78;;;6.23;85.96
72925;BME280;61070;50.794;7.054;2023-02-01T09:20:41;101303.41;;;6.17;85.88
72925;BME280;61070;50.794;7.054;2023-02-01T09:23:06;101294.78;;;6.26;85.59
72925;BME280;61070;50.794;7.054;2023-02-01T09:25:32;101303.59;;;6.28;85.67
72925;BME280;61070;50.794;7.054;2023-02-01T09:27:57;101307.31;;;6.42;85.38
72925;BME280;61070;50.794;7.054;2023-02-01T09:30:23;101305.56;;;6.42;83.94
72925;BME280;61070;50.794;7.054;2023-02-01T09:32:48;101301.06;;;6.35;84.31
72925;BME280;61070;50.794;7.054;2023-02-01T09:35:13;101299.31;;;6.34;85.11
72925;BME280;61070;50.794;7.054;2023-02-01T09:37:39;101300.31;;;6.44;85.31
72925;BME280;61070;50.794;7.054;2023-02-01T09:40:04;101310.81;;;6.42;83.96
72925;BME280;61070;50.794;7.054;2023-02-01T09:42:53;101309.00;;;6.37;84.96
72925;BME280;61070;50.794;7.054;2023-02-01T09:45:31;101316.81;;;6.34;84.84
72925;BME280;61070;50.794;7.054;2023-02-01T09:48:14;101316.97;;;6.45;85.32
72925;BME280;61070;50.794;7.054;2023-02-01T09:50:46;101301.16;;;6.41;84.91
72925;BME280;61070;50.794;7.054;2023-02-01T09:53:21;101320.50;;;6.45;84.21
72925;BME280;61070;50.794;7.054;2023-02-01T09:55:50;101319.66;;;6.46;84.09
72925;BME280;61070;50.794;7.054;2023-02-01T09:58:26;101311.81;;;6.51;84.08
72925;BME280;61070;50.794;7.054;2023-02-01T10:00:55;101318.84;;;6.50;84.58
72925;BME280;61070;50.794;7.054;2023-02-01T10:03:24;101317.09;;;6.52;84.59
72925;BME280;61070;50.794;7.054;2023-02-01T10:16:57;101289.91;;;6.53;84.46
72925;BME280;61070;50.794;7.054;2023-02-01T10:22:37;101287.44;;;6.65;83.41
72925;BME280;61070;50.794;7.054;2023-02-01T10:25:12;101281.41;;;6.71;83.67
72925;BME280;61070;50.794;7.054;2023-02-01T10:27:39;101293.75;;;6.78;82.92
72925;BME280;61070;50.794;7.054;2023-02-01T10:30:30;101285.09;;;6.85;82.16
72925;BME280;61070;50.794;7.054;2023-02-01T10:33:14;101292.16;;;6.89;81.86
72925;BME280;61070;50.794;7.054;2023-02-01T10:35:40;101291.41;;;7.01;82.31
72925;BME280;61070;50.794;7.054;2023-02-01T10:38:16;101280.06;;;7.05;81.45
72925;BME280;61070;50.794;7.054;2023-02-01T10:40:47;101293.16;;;7.00;81.49
72925;BME280;61070;50.794;7.054;2023-02-01T10:43:13;101283.63;;;7.10;81.72
72925;BME280;61070;50.794;7.054;2023-02-01T10:45:38;101288.88;;;7.07;81.57
72925;BME280;61070;50.794;7.054;2023-02-01T10:48:05;101278.56;;;7.27;80.09
72925;BME280;61070;50.794;7.054;2023-02-01T10:50:46;101286.59;;;7.41;80.67
72925;BME280;61070;50.794;7.054;2023-02-01T10:53:29;101274.34;;;7.44;78.80
72925;BME280;61070;50.794;7.054;2023-02-01T10:55:56;101268.94;;;7.34;79.64
72925;BME280;61070;50.794;7.054;2023-02-01T10:58:32;101269.00;;;7.37;78.79
72925;BME280;61070;50.794;7.054;2023-02-01T11:00:58;101265.56;;;7.47;79.30
72925;BME280;61070;50.794;7.054;2023-02-01T11:06:00;101262.22;;;7.60;78.58
72925;BME280;61070;50.794;7.054;2023-02-01T11:08:26;101259.78;;;7.83;77.33
72925;BME280;61070;50.794;7.054;2023-02-01T11:10:59;101252.56;;;7.62;77.36
72925;BME280;61070;50.794;7.054;2023-02-01T11:13:32;101246.41;;;7.62;78.15
72925;BME280;61070;50.794;7.054;2023-02-01T11:16:02;101251.72;;;7.69;77.28
72925;BME280;61070;50.794;7.054;2023-02-01T11:18:30;101259.53;;;7.57;77.48
72925;BME280;61070;50.794;7.054;2023-02-01T11:20:58;101251.66;;;7.60;77.23
72925;BME280;61070;50.794;7.054;2023-02-01T11:23:25;101268.34;;;7.59;77.27
72925;BME280;61070;50.794;7.054;2023-02-01T11:25:54;101256.78;;;7.46;77.53
72925;BME280;61070;50.794;7.054;2023-02-01T11:28:24;101268.28;;;7.54;76.71
72925;BME280;61070;50.794;7.054;2023-02-01T11:30:53;101272.56;;;7.42;77.75
72925;BME280;61070;50.794;7.054;2023-02-01T11:33:22;101263.81;;;7.47;77.50
72925;BME280;61070;50.794;7.054;2023-02-01T11:35:51;101261.16;;;7.44;76.97
72925;BME280;61070;50.794;7.054;2023-02-01T11:38:23;101241.94;;;7.54;76.71
72925;BME280;61070;50.794;7.054;2023-02-01T11:40:50;101246.34;;;7.57;77.51
72925;BME280;61070;50.794;7.054;2023-02-01T11:43:22;101251.59;;;7.57;76.69
72925;BME280;61070;50.794;7.054;2023-02-01T11:46:00;101245.56;;;7.67;76.57
72925;BME280;61070;50.794;7.054;2023-02-01T11:48:28;101241.16;;;7.69;75.50
72925;BME280;61070;50.794;7.054;2023-02-01T12:02:24;101226.88;;;7.43;75.19
72925;BME280;61070;50.794;7.054;2023-02-01T12:13:27;101214.50;;;7.36;75.76
72925;BME280;61070;50.794;7.054;2023-02-01T12:18:48;101220.72;;;7.41;75.98
72925;BME280;61070;50.794;7.054;2023-02-01T12:21:28;101203.25;;;7.50;76.32
72925;BME280;61070;50.794;7.054;2023-02-01T12:24:39;101205.97;;;7.61;75.75
72925;BME280;61070;50.794;7.054;2023-02-01T12:41:23;101191.13;;;7.72;73.89
72925;BME280;61070;50.794;7.054;2023-02-01T12:43:54;101178.75;;;7.65;74.15
72925;BME280;61070;50.794;7.054;2023-02-01T12:46:27;101183.16;;;7.68;74.02
72925;BME280;61070;50.794;7.054;2023-02-01T12:49:15;101170.91;;;7.74;73.41
72925;BME280;61070;50.794;7.054;2023-02-01T12:51:44;101192.88;;;7.72;73.16
72925;BME280;61070;50.794;7.054;2023-02-01T12:57:11;101179.72;;;7.81;73.09
72925;BME280;61070;50.794;7.054;2023-02-01T13:02:21;101184.13;;;7.80;73.81
72925;BME280;61070;50.794;7.054;2023-02-01T13:04:58;101182.41;;;7.85;73.86
72925;BME280;61070;50.794;7.054;2023-02-01T13:07:30;101158.75;;;7.93;73.50
72925;BME280;61070;50.794;7.054;2023-02-01T13:10:03;101169.25;;;7.87;73.44
72925;BME280;61070;50.794;7.054;2023-02-01T13:12:42;101163.09;;;7.86;73.65
72925;BME280;61070;50.794;7.054;2023-02-01T13:15:17;101161.25;;;7.73;73.64
72925;BME280;61070;50.794;7.054;2023-02-01T13:17:44;101150.59;;;7.61;74.20
72925;BME280;61070;50.794;7.054;2023-02-01T13:20:48;101145.34;;;7.64;74.46
72925;BME280;61070;50.794;7.054;2023-02-01T13:23:24;101158.53;;;7.64;74.32
72925;BME280;61070;50.794;7.054;2023-02-01T13:25:51;101152.31;;;7.57;74.55
72925;BME280;61070;50.794;7.054;2023-02-01T13:28:29;101138.25;;;7.57;74.42
72925;BME280;61070;50.794;7.054;2023-02-01T13:36:51;101135.59;;;7.51;76.94
72925;BME280;61070;50.794;7.054;2023-02-01T13:39:38;101140.75;;;7.39;79.11
72925;BME280;61070;50.794;7.054;2023-02-01T13:42:20;101130.13;;;7.26;79.85
72925;BME280;61070;50.794;7.054;2023-02-01T13:44:50;101125.75;;;7.28;79.44
72925;BME280;61070;50.794;7.054;2023-02-01T13:47:26;101130.06;;;7.23;80.41
72925;BME280;61070;50.794;7.054;2023-02-01T13:49:55;101123.91;;;7.21;80.33
72925;BME280;61070;50.794;7.054;2023-02-01T13:52:26;101122.16;;;7.20;81.48
72925;BME280;61070;50.794;7.054;2023-02-01T13:57:49;101123.91;;;7.18;82.40
72925;BME280;61070;50.794;7.054;2023-02-01T14:00:24;101115.97;;;7.15;81.55
72925;BME280;61070;50.794;7.054;2023-02-01T14:03:02;101121.28;;;7.21;81.83
72925;BME280;61070;50.794;7.054;2023-02-01T14:13:27;101112.56;;;7.28;81.09
72925;BME280;61070;50.794;7.054;2023-02-01T14:21:32;101113.53;;;7.37;78.95
72925;BME280;61070;50.794;7.054;2023-02-01T14:26:45;101118.84;;;7.46;79.23
72925;BME280;61070;50.794;7.054;2023-02-01T14:34:29;101118.81;;;7.43;78.62
72925;BME280;61070;50.794;7.054;2023-02-01T14:36:59;101117.13;;;7.51;78.62
72925;BME280;61070;50.794;7.054;2023-02-01T14:42:22;101118.91;;;7.52;78.59
72925;BME280;61070;50.794;7.054;2023-02-01T14:44:49;101132.09;;;7.58;78.00
72925;BME280;61070;50.794;7.054;2023-02-01T14:52:23;101143.59;;;7.65;77.61
72925;BME280;61070;50.794;7.054;2023-02-01T14:54:54;101135.66;;;7.60;77.57
72925;BME280;61070;50.794;7.054;2023-02-01T14:57:24;101138.31;;;7.63;77.36
72925;BME280;61070;50.794;7.054;2023-02-01T14:59:59;101135.69;;;7.63;77.79
72925;BME280;61070;50.794;7.054;2023-02-01T15:02:26;101138.31;;;7.63;77.33
72925;BME280;61070;50.794;7.054;2023-02-01T15:04:55;101140.97;;;7.69;76.80
72925;BME280;61070;50.794;7.054;2023-02-01T15:07:25;101138.31;;;7.63;76.48
72925;BME280;61070;50.794;7.054;2023-02-01T15:09:53;101152.41;;;7.70;76.02
72925;BME280;61070;50.794;7.054;2023-02-01T15:12:27;101141.84;;;7.70;75.88
72925;BME280;61070;50.794;7.054;2023-02-01T15:15:22;101147.13;;;7.70;76.13
72925;BME280;61070;50.794;7.054;2023-02-01T15:17:50;101134.88;;;7.76;75.28